KBFI/BFI METAR and TAF weather

Enter ICAO airport designator
Station Type Date Time Source
KBFI METAR 2020/03/28 20:53 UTC NOAA

KBFI 282053Z 17013KT 10SM -RA OVC033 12/07 A2996 RMK AO2 RAB03E22B40 SLP145 P0000 60000 T01170067 58013


Station Type Date Time Source
KBFI Decoded METAR 2020/03/28 20:53 UTC NOAA

SEATTLE BOEING FIELD, WA, United States (KBFI) 47-33N 122-19W 4M
Mar 28, 2020 - 04:53 PM EDT / 2020.03.28 2053 UTC
Wind: from the S (170 degrees) at 15 MPH (13 KT):0
Visibility: 10 mile(s):0
Sky conditions: overcast
Weather: light rain
Precipitation last hour: A trace
Temperature: 53.1 F (11.7 C)
Dew Point: 44.1 F (6.7 C)
Relative Humidity: 71%
Pressure (altimeter): 29.96 in. Hg (1014 hPa)
Pressure tendency: 0.04 inches (1.3 hPa) lower than three hours ago
ob: KBFI 282053Z 17013KT 10SM -RA OVC033 12/07 A2996 RMK AO2 RAB03E22B40 SLP145 P0000 60000 T01170067 58013
cycle: 21

Station Type Date Time Source
KBFI TAF 2020/03/28 21:03 UTC NOAA

TAF
AMD KBFI 282101Z 2821/2918 17013KT P6SM -RA SCT025 OVC035
FM282300 18015KT 6SM -RA OVC025
FM290800 20008KT P6SM -SHRA SCT035 OVC050

Example: see airport list